Time;durP1;ratioP1;P1;durP2;ratioP2;P2;SDS_P1;SDS_P2;PMS_P1;PMS_P2;Temp;Humidity;BMP_temperature;BMP_pressure;BME280_temperature;BME280_humidity;BME280_pressure;Samples;Min_cycle;Max_cycle;Signal;HPM_P1;HPM_P2
2023/06/11 00:00:09;;;;;;;;;;;;;;;8.45;54.73;100871.75;5041182;28;19924;-69
2023/06/11 00:02:35;;;;;;;;;;;;;;;8.42;55.04;100877.63;5042278;28;20388;-69
2023/06/11 00:05:07;;;;;;;;;;;;;;;8.38;55.24;100874.56;5045447;28;19947;-70
2023/06/11 00:07:37;;;;;;;;;;;;;;;8.37;55.14;100881.09;5042605;28;19951;-69
2023/06/11 00:10:03;;;;;;;;;;;;;;;8.36;55.11;100880.25;5045765;28;19924;-69
2023/06/11 00:12:29;;;;;;;;;;;;;;;8.35;55.38;100875.00;5044966;28;19925;-69
2023/06/11 00:14:55;;;;;;;;;;;;;;;8.38;55.52;100885.47;5043177;28;19924;-70
2023/06/11 00:17:21;;;;;;;;;;;;;;;8.36;55.47;100880.25;5042884;28;20374;-69
2023/06/11 00:19:48;;;;;;;;;;;;;;;8.33;55.75;100880.72;5042779;28;19925;-70
2023/06/11 00:22:14;;;;;;;;;;;;;;;8.30;56.55;100881.19;5041296;28;19925;-69
2023/06/11 00:24:42;;;;;;;;;;;;;;;8.20;57.14;100876.31;5042786;28;19968;-69
2023/06/11 00:27:07;;;;;;;;;;;;;;;8.29;56.75;100895.03;5045736;28;19963;-69
2023/06/11 00:29:33;;;;;;;;;;;;;;;8.28;56.54;100898.81;5040380;28;20367;-69
2023/06/11 00:31:59;;;;;;;;;;;;;;;8.25;56.97;100891.13;5044836;28;20312;-69
2023/06/11 00:34:26;;;;;;;;;;;;;;;8.25;56.29;100891.94;5040871;28;19925;-69
2023/06/11 00:36:52;;;;;;;;;;;;;;;8.24;57.04;100890.28;5040201;28;19964;-70
2023/06/11 00:39:18;;;;;;;;;;;;;;;8.23;57.06;100892.19;5041578;28;20367;-69
2023/06/11 00:41:45;;;;;;;;;;;;;;;8.20;56.59;100898.09;5029870;28;20396;-70
2023/06/11 00:44:17;;;;;;;;;;;;;;;8.20;56.20;100900.84;5045554;28;19978;-69
2023/06/11 00:46:44;;;;;;;;;;;;;;;8.24;56.25;100903.91;5047548;28;19925;-70
2023/06/11 00:49:11;;;;;;;;;;;;;;;8.21;57.17;100902.50;5047869;28;19956;-69
2023/06/11 00:51:38;;;;;;;;;;;;;;;8.18;57.74;100902.13;5028477;28;19999;-69
2023/06/11 00:54:03;;;;;;;;;;;;;;;8.17;57.82;100901.28;5046189;28;19925;-68
2023/06/11 00:56:29;;;;;;;;;;;;;;;8.16;57.30;100898.78;5046977;28;20534;-69
2023/06/11 00:58:59;;;;;;;;;;;;;;;8.14;57.69;100903.66;5045609;28;19994;-68
2023/06/11 01:01:29;;;;;;;;;;;;;;;8.13;57.38;100905.53;5045129;28;19978;-69
2023/06/11 01:03:57;;;;;;;;;;;;;;;8.12;57.16;100917.50;5046296;28;19929;-69
2023/06/11 01:06:28;;;;;;;;;;;;;;;8.13;56.86;100910.97;5044719;28;19951;-70
2023/06/11 01:08:58;;;;;;;;;;;;;;;8.12;57.50;100911.19;5046221;28;19932;-68
2023/06/11 01:11:34;;;;;;;;;;;;;;;8.13;56.79;100915.63;5042358;28;20024;-69
2023/06/11 01:14:12;;;;;;;;;;;;;;;8.13;57.76;100919.16;5046395;28;19925;-71
2023/06/11 01:16:44;;;;;;;;;;;;;;;8.15;57.15;100918.94;5045017;28;19925;-70
2023/06/11 01:19:20;;;;;;;;;;;;;;;8.11;58.03;100918.56;5046785;28;20289;-69
2023/06/11 01:21:50;;;;;;;;;;;;;;;8.13;57.69;100923.78;5045100;28;19932;-69
2023/06/11 01:24:18;;;;;;;;;;;;;;;8.16;57.68;100920.59;5046130;28;19924;-70
2023/06/11 01:26:49;;;;;;;;;;;;;;;8.20;57.42;100916.34;5045627;28;19959;-69
2023/06/11 01:29:18;;;;;;;;;;;;;;;8.25;57.54;100916.47;5043626;28;19955;-69
2023/06/11 01:31:44;;;;;;;;;;;;;;;8.25;57.57;100921.09;5043012;28;20402;-69
2023/06/11 01:34:13;;;;;;;;;;;;;;;8.24;57.32;100917.53;5047334;28;19929;-69
2023/06/11 01:36:39;;;;;;;;;;;;;;;8.23;57.11;100910.41;5043723;28;19925;-69
2023/06/11 01:39:06;;;;;;;;;;;;;;;8.27;57.63;100921.69;5028951;28;20401;-69
2023/06/11 01:41:52;;;;;;;;;;;;;;;8.29;57.94;100920.41;5033662;28;19935;-69
2023/06/11 01:44:20;;;;;;;;;;;;;;;8.31;58.12;100929.19;5045166;28;19924;-69
2023/06/11 01:46:46;;;;;;;;;;;;;;;8.34;57.90;100925.13;5045113;28;20059;-69
2023/06/11 01:49:12;;;;;;;;;;;;;;;8.35;58.18;100924.91;5027082;28;20027;-69
2023/06/11 01:51:38;;;;;;;;;;;;;;;8.33;57.74;100929.78;5045037;28;20040;-69
2023/06/11 01:54:05;;;;;;;;;;;;;;;8.31;57.82;100934.63;5026199;28;19925;-70
2023/06/11 01:56:32;;;;;;;;;;;;;;;8.31;58.09;100936.50;5027992;28;20171;-70
2023/06/11 01:58:58;;;;;;;;;;;;;;;8.32;58.13;100938.16;5043984;28;20201;-69
2023/06/11 02:01:28;;;;;;;;;;;;;;;8.32;58.43;100947.19;5043700;28;19929;-69
2023/06/11 02:03:54;;;;;;;;;;;;;;;8.38;57.60;100953.59;5040935;28;19924;-70
2023/06/11 02:06:20;;;;;;;;;;;;;;;8.41;58.01;100950.41;5026690;28;19925;-69
2023/06/11 02:08:46;;;;;;;;;;;;;;;8.46;58.30;100950.53;5043876;28;20381;-70
2023/06/11 02:11:11;;;;;;;;;;;;;;;8.48;58.25;100944.88;5044228;28;19928;-69
2023/06/11 02:13:38;;;;;;;;;;;;;;;8.50;58.17;100946.31;5044453;28;19928;-68
2023/06/11 02:16:04;;;;;;;;;;;;;;;8.54;58.33;100952.13;5045085;28;19925;-69
2023/06/11 02:18:31;;;;;;;;;;;;;;;8.56;57.85;100946.47;5045345;28;19925;-69
2023/06/11 02:20:57;;;;;;;;;;;;;;;8.59;58.26;100952.28;5042867;28;19924;-70
2023/06/11 02:23:22;;;;;;;;;;;;;;;8.62;58.32;100954.53;5011914;28;19928;-70
2023/06/11 02:25:48;;;;;;;;;;;;;;;8.65;58.30;100955.94;5043744;28;19940;-69
2023/06/11 02:28:14;;;;;;;;;;;;;;;8.72;58.37;100962.13;5045605;28;20347;-69
2023/06/11 02:30:40;;;;;;;;;;;;;;;8.79;57.78;100959.31;5050087;28;19925;-69
2023/06/11 02:33:07;;;;;;;;;;;;;;;8.84;57.59;100962.16;5035695;28;19955;-69
2023/06/11 02:35:36;;;;;;;;;;;;;;;8.90;57.23;100971.28;5043899;28;20024;-69
2023/06/11 02:38:02;;;;;;;;;;;;;;;8.93;56.88;100965.38;5040229;28;19929;-70
2023/06/11 02:40:28;;;;;;;;;;;;;;;8.99;57.15;100971.78;5044999;28;20354;-70
2023/06/11 02:42:54;;;;;;;;;;;;;;;9.09;56.23;100972.03;5039509;28;19931;-69
2023/06/11 02:45:19;;;;;;;;;;;;;;;9.16;56.07;100975.47;5039384;28;20408;-69
2023/06/11 02:47:45;;;;;;;;;;;;;;;9.15;56.40;100975.72;5024327;28;19930;-67
2023/06/11 02:50:11;;;;;;;;;;;;;;;9.16;56.76;100970.00;5044104;28;19978;-70
2023/06/11 02:52:38;;;;;;;;;;;;;;;9.21;56.14;100977.50;5043855;28;20439;-68
2023/06/11 02:55:04;;;;;;;;;;;;;;;9.18;56.08;100977.97;5045147;28;20034;-70
2023/06/11 02:57:30;;;;;;;;;;;;;;;9.15;55.71;100979.28;5045222;28;20216;-70
2023/06/11 02:59:56;;;;;;;;;;;;;;;9.11;55.76;100977.25;5040465;28;19925;-69
2023/06/11 03:02:22;;;;;;;;;;;;;;;9.11;55.40;100979.97;5043707;28;19928;-69
2023/06/11 03:04:47;;;;;;;;;;;;;;;9.18;55.76;100981.50;5045528;28;19924;-71
2023/06/11 03:07:14;;;;;;;;;;;;;;;9.29;55.15;100989.97;5042746;28;19925;-70
2023/06/11 03:09:41;;;;;;;;;;;;;;;9.45;53.63;100989.25;5041646;28;19978;-68
2023/06/11 03:12:08;;;;;;;;;;;;;;;9.56;54.01;100995.75;5042580;28;20102;-70
2023/06/11 03:14:35;;;;;;;;;;;;;;;9.62;54.52;100985.78;5026431;28;19925;-69
2023/06/11 03:17:00;;;;;;;;;;;;;;;9.69;54.33;100999.31;5043508;28;19925;-70
2023/06/11 03:19:26;;;;;;;;;;;;;;;9.75;53.77;100991.00;5026222;28;19925;-69
2023/06/11 03:21:54;;;;;;;;;;;;;;;9.86;53.18;100993.94;5041926;28;20403;-69
2023/06/11 03:24:20;;;;;;;;;;;;;;;9.95;52.67;100995.22;5041929;28;19925;-69
2023/06/11 03:26:48;;;;;;;;;;;;;;;10.08;52.64;101000.41;5044017;28;19957;-69
2023/06/11 03:29:14;;;;;;;;;;;;;;;10.18;50.40;100998.97;5042500;28;19936;-70
2023/06/11 03:31:47;;;;;;;;;;;;;;;10.25;50.63;100991.44;5027279;28;20022;-70
2023/06/11 03:34:13;;;;;;;;;;;;;;;10.32;50.00;101002.22;5024444;28;20031;-70
2023/06/11 03:36:39;;;;;;;;;;;;;;;10.38;49.18;101005.91;5026236;28;19968;-69
2023/06/11 03:39:10;;;;;;;;;;;;;;;10.41;49.81;101003.56;5042873;28;19972;-70
2023/06/11 03:41:35;;;;;;;;;;;;;;;10.46;50.05;101011.03;5041378;28;20397;-68
2023/06/11 03:44:03;;;;;;;;;;;;;;;10.61;50.15;101015.94;5044298;28;19931;-68
2023/06/11 03:46:29;;;;;;;;;;;;;;;10.61;48.62;101002.25;5026414;28;19925;-70
2023/06/11 03:48:56;;;;;;;;;;;;;;;10.73;48.48;101003.03;5043566;28;19932;-70
2023/06/11 03:51:22;;;;;;;;;;;;;;;10.71;48.10;101016.13;5045403;28;19928;-70
2023/06/11 03:53:48;;;;;;;;;;;;;;;10.81;48.28;101014.63;5044287;28;19936;-70
2023/06/11 03:56:14;;;;;;;;;;;;;;;10.82;48.15;101008.94;5043848;28;20038;-70
2023/06/11 03:58:39;;;;;;;;;;;;;;;10.72;47.71;101001.38;5044622;28;20447;-70
2023/06/11 04:01:07;;;;;;;;;;;;;;;10.63;48.20;101014.63;5044366;28;19928;-71
2023/06/11 04:03:33;;;;;;;;;;;;;;;10.68;48.45;101013.88;5045547;28;20019;-70
2023/06/11 04:05:59;;;;;;;;;;;;;;;10.63;48.93;101006.41;5024516;28;20035;-68
2023/06/11 04:08:25;;;;;;;;;;;;;;;10.71;48.53;101010.66;5040065;28;19925;-70
2023/06/11 04:10:52;;;;;;;;;;;;;;;10.72;49.04;101006.84;5038775;28;19924;-70
2023/06/11 04:13:18;;;;;;;;;;;;;;;10.83;48.48;101009.75;5042406;28;19975;-69
2023/06/11 04:15:44;;;;;;;;;;;;;;;10.95;48.21;101006.97;5043445;28;20312;-70
2023/06/11 04:18:13;;;;;;;;;;;;;;;11.04;48.48;101003.56;5045322;28;19929;-69
2023/06/11 04:20:39;;;;;;;;;;;;;;;11.12;47.50;101002.31;5061083;28;19925;-69
2023/06/11 04:23:06;;;;;;;;;;;;;;;11.14;47.44;101005.63;5029589;28;20003;-70
2023/06/11 04:25:33;;;;;;;;;;;;;;;11.21;47.47;101003.53;5045180;28;19966;-69
2023/06/11 04:28:00;;;;;;;;;;;;;;;11.25;47.09;101003.06;5044664;28;19940;-69
2023/06/11 04:30:27;;;;;;;;;;;;;;;11.24;46.56;100999.47;5045919;28;20396;-69
2023/06/11 04:32:54;;;;;;;;;;;;;;;11.27;46.72;101007.19;5026803;28;19931;-69
2023/06/11 04:35:24;;;;;;;;;;;;;;;11.31;46.34;100996.56;5044562;28;19928;-70
2023/06/11 04:37:51;;;;;;;;;;;;;;;11.41;46.21;100998.63;5047650;28;19990;-69
2023/06/11 04:40:23;;;;;;;;;;;;;;;11.53;46.20;100999.38;5046049;28;19924;-69
2023/06/11 04:42:49;;;;;;;;;;;;;;;11.64;46.25;101000.34;5050224;28;19924;-70
2023/06/11 04:45:18;;;;;;;;;;;;;;;11.64;45.18;101000.34;5014317;28;19924;-69
2023/06/11 04:47:45;;;;;;;;;;;;;;;11.65;44.46;100999.25;5046190;28;19932;-69
2023/06/11 04:50:12;;;;;;;;;;;;;;;11.69;44.30;101005.88;5030711;28;19928;-69
2023/06/11 04:52:42;;;;;;;;;;;;;;;11.66;43.82;101005.56;5045744;28;20355;-69
2023/06/11 04:55:12;;;;;;;;;;;;;;;11.71;44.13;101005.63;5029758;28;19931;-69
2023/06/11 04:57:38;;;;;;;;;;;;;;;11.77;43.51;101005.44;5043321;28;19928;-70
2023/06/11 05:00:10;;;;;;;;;;;;;;;11.86;42.85;101007.72;5044003;28;19940;-70
2023/06/11 05:02:38;;;;;;;;;;;;;;;11.92;43.15;101007.56;5027851;28;19925;-69
2023/06/11 05:05:05;;;;;;;;;;;;;;;12.01;42.77;101013.44;5046035;28;19924;-69
2023/06/11 05:07:31;;;;;;;;;;;;;;;12.06;43.14;101015.44;5017582;28;19929;-69
2023/06/11 05:10:00;;;;;;;;;;;;;;;12.10;42.32;101018.50;5044634;28;19931;-72
2023/06/11 05:12:26;;;;;;;;;;;;;;;12.08;42.51;101002.28;5031617;28;19924;-71
2023/06/11 05:14:52;;;;;;;;;;;;;;;12.09;41.63;101003.13;5028303;28;20036;-71
2023/06/11 05:17:18;;;;;;;;;;;;;;;12.05;41.90;101006.38;5046701;28;20027;-72
2023/06/11 05:19:46;;;;;;;;;;;;;;;12.10;42.30;101016.59;5046760;28;19925;-72
2023/06/11 05:22:12;;;;;;;;;;;;;;;12.12;41.20;101008.09;5028111;28;19931;-71
2023/06/11 05:24:41;;;;;;;;;;;;;;;12.10;41.36;101013.00;5028683;28;20022;-72
2023/06/11 05:27:09;;;;;;;;;;;;;;;12.13;41.11;101015.25;5030660;28;20288;-71
2023/06/11 05:29:36;;;;;;;;;;;;;;;12.19;41.33;101014.22;5046017;28;20346;-71
2023/06/11 05:32:02;;;;;;;;;;;;;;;12.29;40.75;101011.59;5047281;28;19995;-72
2023/06/11 05:34:30;;;;;;;;;;;;;;;12.38;40.87;101009.22;5029430;28;19930;-71
2023/06/11 05:36:59;;;;;;;;;;;;;;;12.39;40.21;101001.84;5047412;28;20149;-71
2023/06/11 05:39:25;;;;;;;;;;;;;;;12.40;39.90;101000.75;5043759;28;19956;-71
2023/06/11 05:41:51;;;;;;;;;;;;;;;12.43;39.40;101005.72;5040572;28;20513;-71
2023/06/11 05:44:22;;;;;;;;;;;;;;;12.47;39.52;101001.34;5044193;28;20438;-71
2023/06/11 05:46:48;;;;;;;;;;;;;;;12.53;39.43;101013.22;5043956;28;20304;-72
2023/06/11 05:49:15;;;;;;;;;;;;;;;12.53;39.33;100999.50;5046313;28;19999;-70
2023/06/11 05:51:41;;;;;;;;;;;;;;;12.53;37.83;101014.06;5045329;28;20458;-70
2023/06/11 05:54:07;;;;;;;;;;;;;;;12.58;37.97;101005.88;5046616;28;19931;-70
2023/06/11 05:56:34;;;;;;;;;;;;;;;12.56;38.38;101007.19;5043763;28;20403;-70
2023/06/11 05:59:01;;;;;;;;;;;;;;;12.59;38.32;100999.28;5044188;28;19925;-70
2023/06/11 06:01:33;;;;;;;;;;;;;;;12.58;38.39;101011.34;5042360;28;19968;-71
2023/06/11 06:03:59;;;;;;;;;;;;;;;12.63;39.23;101000.41;5027244;28;19932;-70
2023/06/11 06:06:25;;;;;;;;;;;;;;;12.71;38.68;101006.53;5046399;28;20038;-73
2023/06/11 06:08:51;;;;;;;;;;;;;;;12.75;37.60;100999.44;5026230;28;19925;-70
2023/06/11 06:11:17;;;;;;;;;;;;;;;12.75;37.24;100992.03;5046169;28;19932;-73
2023/06/11 06:13:43;;;;;;;;;;;;;;;12.77;36.26;100989.88;5042785;28;20015;-73
2023/06/11 06:16:12;;;;;;;;;;;;;;;12.74;36.21;100993.13;5043056;28;19924;-73
2023/06/11 06:18:40;;;;;;;;;;;;;;;12.77;35.86;100991.78;5029646;28;20019;-72
2023/06/11 06:21:07;;;;;;;;;;;;;;;12.86;34.82;100978.41;5044033;28;19924;-72
2023/06/11 06:23:33;;;;;;;;;;;;;;;12.92;35.01;100985.59;5043810;28;19924;-71
2023/06/11 06:26:03;;;;;;;;;;;;;;;13.12;34.19;100981.34;5043295;28;19970;-71
2023/06/11 06:28:31;;;;;;;;;;;;;;;13.24;33.42;100986.66;5027723;28;19924;-72
2023/06/11 06:30:58;;;;;;;;;;;;;;;13.34;33.80;100984.00;5043006;28;19968;-72
2023/06/11 06:33:24;;;;;;;;;;;;;;;13.54;34.19;100982.47;5022118;28;19968;-72
2023/06/11 06:35:51;;;;;;;;;;;;;;;13.73;33.83;100985.63;5034714;28;19932;-72
2023/06/11 06:38:18;;;;;;;;;;;;;;;13.83;33.70;100984.84;5038190;28;19960;-72
2023/06/11 06:40:47;;;;;;;;;;;;;;;13.86;33.82;100984.28;5042712;28;19931;-71
2023/06/11 06:43:13;;;;;;;;;;;;;;;13.89;33.64;100981.00;5042777;28;19924;-72
2023/06/11 06:45:41;;;;;;;;;;;;;;;14.12;34.22;100981.66;5044121;28;20350;-71
2023/06/11 06:48:15;;;;;;;;;;;;;;;14.22;32.52;100973.44;5044123;28;19925;-71
2023/06/11 06:50:41;;;;;;;;;;;;;;;14.26;32.31;100988.31;5043752;28;19925;-72
2023/06/11 06:53:08;;;;;;;;;;;;;;;14.31;32.88;100993.81;5045043;28;20331;-72
2023/06/11 06:55:34;;;;;;;;;;;;;;;14.39;32.85;100988.88;5046399;28;19970;-72
2023/06/11 06:58:05;;;;;;;;;;;;;;;14.47;32.71;100991.09;5042205;28;20019;-72
2023/06/11 07:00:31;;;;;;;;;;;;;;;14.58;32.13;100995.53;5027599;28;19978;-71
2023/06/11 07:02:57;;;;;;;;;;;;;;;14.65;32.62;100986.16;5043648;28;20008;-71
2023/06/11 07:05:24;;;;;;;;;;;;;;;14.78;32.01;100985.66;5041896;28;20296;-72
2023/06/11 07:07:51;;;;;;;;;;;;;;;14.89;32.30;100998.34;5025355;28;20471;-72
2023/06/11 07:10:19;;;;;;;;;;;;;;;15.02;32.62;100996.16;5045653;28;19925;-72
2023/06/11 07:12:45;;;;;;;;;;;;;;;15.23;31.97;100987.84;5044218;28;20355;-71
2023/06/11 07:15:10;;;;;;;;;;;;;;;15.42;31.76;100991.69;5042761;28;19924;-71
2023/06/11 07:17:37;;;;;;;;;;;;;;;15.60;31.72;100982.00;5043330;28;20019;-71
2023/06/11 07:20:07;;;;;;;;;;;;;;;15.79;31.10;100980.56;5011297;28;20031;-71
2023/06/11 07:22:33;;;;;;;;;;;;;;;15.78;31.04;100987.19;5044387;28;20023;-72
2023/06/11 07:25:00;;;;;;;;;;;;;;;15.99;31.25;100985.19;5042508;28;20027;-72
2023/06/11 07:27:28;;;;;;;;;;;;;;;16.36;30.76;100983.06;5028583;28;19971;-72
2023/06/11 07:29:54;;;;;;;;;;;;;;;16.42;30.38;100974.47;5043224;28;19925;-72
2023/06/11 07:32:20;;;;;;;;;;;;;;;16.45;30.54;100987.69;5025061;28;19933;-72
2023/06/11 07:34:46;;;;;;;;;;;;;;;16.53;30.27;100988.22;5042238;28;19925;-72
2023/06/11 07:37:12;;;;;;;;;;;;;;;16.65;30.16;100972.13;5041450;28;19931;-72
2023/06/11 07:39:38;;;;;;;;;;;;;;;16.69;29.64;100980.66;5025128;28;20241;-72
2023/06/11 07:42:05;;;;;;;;;;;;;;;16.65;29.05;100977.66;5042174;28;19972;-71
2023/06/11 07:44:32;;;;;;;;;;;;;;;16.49;29.76;100976.13;5042472;28;19925;-72
2023/06/11 07:46:58;;;;;;;;;;;;;;;16.41;30.19;100977.53;5042723;28;19946;-71
2023/06/11 07:49:24;;;;;;;;;;;;;;;16.56;29.89;100979.38;5041653;28;19929;-71
2023/06/11 07:51:50;;;;;;;;;;;;;;;16.66;29.91;100967.41;5044718;28;19925;-72
2023/06/11 07:54:17;;;;;;;;;;;;;;;16.61;29.86;100978.50;5031104;28;19932;-72
2023/06/11 07:56:46;;;;;;;;;;;;;;;16.62;29.79;100975.44;5049617;28;19925;-72
2023/06/11 07:59:12;;;;;;;;;;;;;;;16.91;29.60;100982.97;5049323;28;20234;-72
2023/06/11 08:01:39;;;;;;;;;;;;;;;17.23;29.11;100986.31;5048766;28;19926;-72
2023/06/11 08:04:05;;;;;;;;;;;;;;;17.35;28.08;100964.66;5031913;28;19929;-72
2023/06/11 08:06:31;;;;;;;;;;;;;;;17.47;28.37;100982.75;5048745;28;19924;-72
2023/06/11 08:08:57;;;;;;;;;;;;;;;17.52;28.13;100979.94;5049480;28;19952;-72
2023/06/11 08:11:23;;;;;;;;;;;;;;;17.60;27.66;100965.47;5048243;28;19925;-72
2023/06/11 08:13:49;;;;;;;;;;;;;;;17.67;27.85;100978.94;5048561;28;20314;-71
2023/06/11 08:16:17;;;;;;;;;;;;;;;17.34;27.54;100970.44;5047599;28;19924;-72
2023/06/11 08:18:44;;;;;;;;;;;;;;;17.17;28.06;100973.66;5048147;28;20027;-71
2023/06/11 08:21:10;;;;;;;;;;;;;;;17.69;27.99;100968.41;5049817;28;19925;-71
2023/06/11 08:23:36;;;;;;;;;;;;;;;18.13;27.16;100972.06;5047710;28;19978;-69
2023/06/11 08:26:02;;;;;;;;;;;;;;;18.37;26.80;100966.47;5038021;28;19925;-69
2023/06/11 08:28:28;;;;;;;;;;;;;;;18.74;26.05;100974.19;5039812;28;20465;-70
2023/06/11 08:30:54;;;;;;;;;;;;;;;19.06;25.77;100975.38;5042400;28;20133;-69
2023/06/11 08:33:20;;;;;;;;;;;;;;;19.27;25.23;100964.72;5049651;28;19933;-70
2023/06/11 08:35:48;;;;;;;;;;;;;;;19.29;25.32;100973.56;5048092;28;19931;-70
2023/06/11 08:38:14;;;;;;;;;;;;;;;19.44;25.69;100971.63;5044836;28;20570;-72
2023/06/11 08:40:40;;;;;;;;;;;;;;;19.81;25.49;100967.84;5043871;28;19948;-72
2023/06/11 08:43:06;;;;;;;;;;;;;;;20.29;24.95;100962.97;5045818;28;20418;-72
2023/06/11 08:45:32;;;;;;;;;;;;;;;20.86;23.84;100946.91;5046896;28;19936;-72
2023/06/11 08:48:01;;;;;;;;;;;;;;;20.86;24.23;100952.47;5033503;28;20354;-70
2023/06/11 08:50:29;;;;;;;;;;;;;;;20.77;24.29;100956.00;5015304;28;19983;-70
2023/06/11 08:53:00;;;;;;;;;;;;;;;21.13;23.76;100943.16;5049187;28;19932;-70
2023/06/11 08:55:27;;;;;;;;;;;;;;;21.43;23.70;100937.88;5047108;28;19971;-70
2023/06/11 08:57:53;;;;;;;;;;;;;;;21.68;23.24;100930.81;5045576;28;19932;-70
2023/06/11 09:00:21;;;;;;;;;;;;;;;21.72;22.91;100922.63;5047780;28;19928;-72
2023/06/11 09:02:47;;;;;;;;;;;;;;;22.09;22.58;100914.84;5048786;28;19931;-73
2023/06/11 09:05:13;;;;;;;;;;;;;;;22.05;22.35;100913.03;5049861;28;20387;-72
2023/06/11 09:07:47;;;;;;;;;;;;;;;22.05;22.23;100924.97;5048880;28;20035;-72
2023/06/11 09:10:15;;;;;;;;;;;;;;;22.10;22.33;100924.84;5028911;28;20023;-70
2023/06/11 09:12:42;;;;;;;;;;;;;;;22.39;22.09;100930.91;5024983;28;19932;-72
2023/06/11 09:15:09;;;;;;;;;;;;;;;22.89;21.49;100909.22;5040234;28;19931;-71
2023/06/11 09:17:36;;;;;;;;;;;;;;;23.00;21.51;100926.41;5048837;28;19928;-72
2023/06/11 09:20:04;;;;;;;;;;;;;;;22.93;21.35;100924.13;5043827;28;19968;-73
2023/06/11 09:22:30;;;;;;;;;;;;;;;22.19;22.15;100930.41;5030355;28;20335;-72
2023/06/11 09:24:56;;;;;;;;;;;;;;;22.23;22.15;100917.47;5046347;28;19935;-71
2023/06/11 09:27:24;;;;;;;;;;;;;;;22.41;21.70;100922.22;5045753;28;19929;-69
2023/06/11 09:29:49;;;;;;;;;;;;;;;22.63;21.46;100912.88;5047634;28;20006;-71
2023/06/11 09:32:15;;;;;;;;;;;;;;;22.82;21.59;100914.50;5048538;28;19964;-70
2023/06/11 09:34:41;;;;;;;;;;;;;;;23.01;21.33;100906.56;5047288;28;19924;-72
2023/06/11 09:37:09;;;;;;;;;;;;;;;23.27;21.04;100907.66;5045561;28;19924;-72
2023/06/11 09:39:35;;;;;;;;;;;;;;;23.24;20.99;100909.09;5045029;28;19964;-73
2023/06/11 09:42:01;;;;;;;;;;;;;;;22.50;21.50;100906.34;5046536;28;20368;-73
2023/06/11 09:44:31;;;;;;;;;;;;;;;22.24;21.85;100901.56;5048348;28;19931;-71
2023/06/11 09:46:57;;;;;;;;;;;;;;;22.40;21.87;100896.31;5046801;28;20027;-71
2023/06/11 09:49:23;;;;;;;;;;;;;;;23.13;21.17;100897.50;5047648;28;19959;-70
2023/06/11 09:51:51;;;;;;;;;;;;;;;24.54;20.24;100893.00;5048933;28;20400;-71
2023/06/11 09:54:17;;;;;;;;;;;;;;;25.10;19.21;100894.56;5049817;28;19924;-70
2023/06/11 09:56:43;;;;;;;;;;;;;;;24.80;19.40;100887.16;5038159;28;20329;-70
2023/06/11 09:59:10;;;;;;;;;;;;;;;24.37;19.58;100883.63;5042480;28;19928;-71
2023/06/11 10:01:40;;;;;;;;;;;;;;;23.75;20.49;100900.81;5045153;28;19947;-71
2023/06/11 10:04:06;;;;;;;;;;;;;;;23.62;20.63;100885.97;5044956;28;19924;-70
2023/06/11 10:06:33;;;;;;;;;;;;;;;23.91;20.02;100887.09;5046135;28;19928;-70
2023/06/11 10:09:00;;;;;;;;;;;;;;;23.93;20.18;100893.16;5030068;28;19933;-70
2023/06/11 10:11:29;;;;;;;;;;;;;;;23.50;20.38;100897.03;5046380;28;20327;-70
2023/06/11 10:13:59;;;;;;;;;;;;;;;23.12;21.00;100895.84;5046891;28;19925;-71
2023/06/11 10:16:25;;;;;;;;;;;;;;;23.42;20.59;100895.94;5045207;28;19940;-70
2023/06/11 10:19:03;;;;;;;;;;;;;;;23.69;19.93;100870.66;5047469;28;19967;-70
2023/06/11 10:21:32;;;;;;;;;;;;;;;23.98;19.57;100874.56;5039741;28;19978;-69
2023/06/11 10:23:58;;;;;;;;;;;;;;;23.90;19.80;100882.66;5041328;28;20346;-70
2023/06/11 10:26:31;;;;;;;;;;;;;;;24.30;19.93;100880.56;5030649;28;19929;-72
2023/06/11 10:28:58;;;;;;;;;;;;;;;25.38;18.98;100877.91;5045393;28;20247;-71
2023/06/11 10:31:25;;;;;;;;;;;;;;;25.13;19.15;100869.50;5033364;28;19928;-73
2023/06/11 10:33:52;;;;;;;;;;;;;;;25.61;18.78;100871.84;5045414;28;20024;-73
2023/06/11 10:36:23;;;;;;;;;;;;;;;25.83;18.33;100856.53;5032657;28;19929;-73
2023/06/11 10:38:49;;;;;;;;;;;;;;;25.14;18.91;100856.34;5032816;28;20351;-73
2023/06/11 10:41:14;;;;;;;;;;;;;;;24.83;19.48;100861.31;5025704;28;19925;-72
2023/06/11 10:43:40;;;;;;;;;;;;;;;25.40;19.02;100867.19;5035956;28;20399;-70
2023/06/11 10:46:12;;;;;;;;;;;;;;;25.22;19.19;100860.19;5040898;28;19931;-70
2023/06/11 10:48:48;;;;;;;;;;;;;;;25.41;19.03;100857.63;5039296;28;19959;-74
2023/06/11 10:51:13;;;;;;;;;;;;;;;25.43;18.65;100851.66;5071171;28;19929;-72
2023/06/11 10:53:41;;;;;;;;;;;;;;;25.49;18.43;100848.28;5042811;28;19924;-72
2023/06/11 10:56:07;;;;;;;;;;;;;;;25.57;18.21;100856.94;5045290;28;19924;-73
2023/06/11 10:58:33;;;;;;;;;;;;;;;25.94;17.84;100847.63;5047917;28;19978;-73
2023/06/11 11:00:59;;;;;;;;;;;;;;;25.81;17.98;100847.66;5022279;28;19929;-72
2023/06/11 11:03:30;;;;;;;;;;;;;;;25.61;18.66;100855.06;5037888;28;20035;-72
2023/06/11 11:05:56;;;;;;;;;;;;;;;25.92;18.23;100850.78;5044099;28;19924;-73
2023/06/11 11:08:21;;;;;;;;;;;;;;;26.08;18.33;100848.06;5047634;28;19925;-73
2023/06/11 11:10:53;;;;;;;;;;;;;;;26.00;18.40;100841.44;5046442;28;19991;-73
2023/06/11 11:13:19;;;;;;;;;;;;;;;26.62;17.94;100834.72;5028177;28;19967;-73
2023/06/11 11:15:46;;;;;;;;;;;;;;;26.92;17.50;100831.53;5044975;28;19929;-72
2023/06/11 11:18:12;;;;;;;;;;;;;;;26.82;17.59;100832.84;5045421;28;19925;-73
2023/06/11 11:20:37;;;;;;;;;;;;;;;27.44;16.97;100845.56;5047436;28;19969;-73
2023/06/11 11:23:05;;;;;;;;;;;;;;;28.00;16.32;100836.00;5037498;28;19986;-72
2023/06/11 11:25:32;;;;;;;;;;;;;;;28.33;15.81;100824.59;5025625;28;19925;-72
2023/06/11 11:27:59;;;;;;;;;;;;;;;28.14;16.30;100831.84;5047043;28;19986;-73
2023/06/11 11:30:28;;;;;;;;;;;;;;;27.81;16.34;100833.19;5028063;28;19924;-73
2023/06/11 11:32:54;;;;;;;;;;;;;;;27.91;16.34;100828.97;5046407;28;19979;-72
2023/06/11 11:35:21;;;;;;;;;;;;;;;28.39;16.23;100832.38;5046223;28;20292;-74
2023/06/11 11:37:47;;;;;;;;;;;;;;;28.31;16.06;100827.81;5046789;28;19924;-73
2023/06/11 11:40:17;;;;;;;;;;;;;;;26.71;17.44;100831.75;5045461;28;19928;-73
2023/06/11 11:42:48;;;;;;;;;;;;;;;27.15;17.33;100834.50;5026055;28;20323;-72
2023/06/11 11:45:16;;;;;;;;;;;;;;;28.51;16.46;100822.13;5044527;28;19924;-73
2023/06/11 11:47:43;;;;;;;;;;;;;;;29.51;14.99;100827.84;5042615;28;20424;-72
2023/06/11 11:50:17;;;;;;;;;;;;;;;28.73;15.67;100824.16;5045753;28;19925;-71
2023/06/11 11:52:45;;;;;;;;;;;;;;;27.85;16.35;100834.91;5038783;28;20388;-73
2023/06/11 11:55:11;;;;;;;;;;;;;;;27.23;16.72;100826.22;5040503;28;19931;-72
2023/06/11 11:57:38;;;;;;;;;;;;;;;25.97;18.12;100830.13;5040088;28;20373;-73
2023/06/11 12:00:05;;;;;;;;;;;;;;;24.88;18.97;100824.72;5023505;28;19929;-72
2023/06/11 12:02:32;;;;;;;;;;;;;;;25.33;18.72;100825.78;5045262;28;20400;-73
2023/06/11 12:04:59;;;;;;;;;;;;;;;26.99;17.30;100826.06;5041247;28;20317;-73
2023/06/11 12:07:25;;;;;;;;;;;;;;;28.89;15.66;100816.78;5045318;28;20057;-74
2023/06/11 12:09:51;;;;;;;;;;;;;;;28.51;15.91;100819.31;5021490;28;19924;-73
2023/06/11 12:12:17;;;;;;;;;;;;;;;27.67;16.62;100830.88;5046316;28;20031;-69
2023/06/11 12:14:42;;;;;;;;;;;;;;;27.66;16.96;100830.06;5045961;28;19951;-71
2023/06/11 12:17:10;;;;;;;;;;;;;;;26.17;18.08;100829.13;5044671;28;20388;-71
2023/06/11 12:19:37;;;;;;;;;;;;;;;24.49;19.36;100815.78;5043529;28;19924;-71
2023/06/11 12:22:04;;;;;;;;;;;;;;;23.85;20.44;100820.63;5045389;28;19933;-70
2023/06/11 12:24:32;;;;;;;;;;;;;;;25.39;19.16;100811.53;5040505;28;20509;-71
2023/06/11 12:26:59;;;;;;;;;;;;;;;25.79;18.85;100810.81;5034690;28;19925;-71
2023/06/11 12:29:25;;;;;;;;;;;;;;;25.39;19.08;100814.34;5022094;28;20451;-71
2023/06/11 12:31:50;;;;;;;;;;;;;;;25.73;18.67;100815.84;5044358;28;19928;-71
2023/06/11 12:34:16;;;;;;;;;;;;;;;25.87;18.88;100825.84;5046264;28;20032;-71
2023/06/11 12:36:44;;;;;;;;;;;;;;;26.53;17.98;100828.47;5045474;28;20046;-70
2023/06/11 12:39:10;;;;;;;;;;;;;;;27.48;17.63;100820.41;5045199;28;19924;-72